Time,TemperatureF,DewpointF,PressureIn,WindDirection,WindDirectionDegrees,WindSpeedMPH,WindSpeedGustMPH,Humidity,HourlyPrecipIn,Conditions,Clouds,dailyrainin,SoftwareType,DateUTC
2013-04-30 00:13:00,42.8,18.4,30.20,SE,135,0.0,-999.0,37,-99.99,,,0.00,Acu-Link.com,2013-04-30 04:13:00,
2013-04-30 00:28:00,43.0,18.5,30.20,SE,135,0.0,-999.0,37,-99.99,,,0.00,Acu-Link.com,2013-04-30 04:28:00,
2013-04-30 00:43:00,42.8,12.0,30.21,ESE,112,0.0,-999.0,28,-99.99,,,0.00,Acu-Link.com,2013-04-30 04:43:00,
2013-04-30 00:58:00,42.8,4.5,30.19,ESE,112,0.0,-999.0,20,-99.99,,,0.00,Acu-Link.com,2013-04-30 04:58:00,
2013-04-30 01:14:00,43.0,14.5,30.22,ESE,112,0.0,-999.0,31,-99.99,,,0.00,Acu-Link.com,2013-04-30 05:14:00,
2013-04-30 01:29:00,43.0,15.2,30.20,ESE,112,0.0,-999.0,32,-99.99,,,0.00,Acu-Link.com,2013-04-30 05:29:00,
2013-04-30 01:44:00,42.8,-1.6,30.20,ESE,112,0.0,-999.0,15,-99.99,,,0.00,Acu-Link.com,2013-04-30 05:44:00,
2013-04-30 01:59:00,43.2,3.8,30.20,SSE,157,0.0,-999.0,19,-99.99,,,0.00,Acu-Link.com,2013-04-30 05:59:00,
2013-04-30 02:14:00,43.7,-9.3,30.19,South,180,0.0,-999.0,10,-99.99,,,0.00,Acu-Link.com,2013-04-30 06:14:00,
2013-04-30 02:29:00,43.5,12.6,30.20,West,270,0.0,-999.0,28,-99.99,,,0.00,Acu-Link.com,2013-04-30 06:29:00,
2013-04-30 02:44:00,43.0,-6.1,30.20,South,180,0.0,-999.0,12,-99.99,,,0.00,Acu-Link.com,2013-04-30 06:44:00,
2013-04-30 03:00:00,43.2,-5.9,30.20,SSE,157,0.0,-999.0,12,-99.99,,,0.00,Acu-Link.com,2013-04-30 07:00:00,
2013-04-30 03:15:00,42.8,-51.4,30.20,SE,135,0.0,-999.0,0,-99.99,,,0.00,Acu-Link.com,2013-04-30 07:15:00,
2013-04-30 03:30:00,42.6,-51.5,30.21,NE,45,0.0,-999.0,1,-99.99,,,0.00,Acu-Link.com,2013-04-30 07:30:00,
2013-04-30 03:45:00,42.3,-51.7,30.21,ESE,112,0.0,-999.0,1,-99.99,,,0.00,Acu-Link.com,2013-04-30 07:45:00,
2013-04-30 04:00:00,42.1,-51.8,30.21,East,90,0.0,-999.0,1,-99.99,,,0.00,Acu-Link.com,2013-04-30 08:00:00,
2013-04-30 04:15:00,42.3,-40.2,30.21,SE,135,0.0,-999.0,2,-99.99,,,0.00,Acu-Link.com,2013-04-30 08:15:00,
2013-04-30 04:31:00,42.3,-40.2,30.21,ESE,112,0.0,-999.0,2,-99.99,,,0.00,Acu-Link.com,2013-04-30 08:31:00,
2013-04-30 04:46:00,42.1,-51.8,30.21,ESE,112,0.0,-999.0,1,-99.99,,,0.00,Acu-Link.com,2013-04-30 08:46:00,
2013-04-30 05:01:00,42.1,-51.8,30.22,SE,135,0.0,-999.0,0,-99.99,,,0.00,Acu-Link.com,2013-04-30 09:01:00,
2013-04-30 05:16:00,42.1,-51.8,30.22,SE,135,0.0,-999.0,1,-99.99,,,0.00,Acu-Link.com,2013-04-30 09:16:00,
2013-04-30 05:31:00,42.1,-51.8,30.24,West,270,0.0,-999.0,1,-99.99,,,0.00,Acu-Link.com,2013-04-30 09:31:00,
2013-04-30 05:47:00,42.1,-51.8,30.24,NE,45,0.0,-999.0,1,-99.99,,,0.00,Acu-Link.com,2013-04-30 09:47:00,
2013-04-30 06:02:00,42.3,-51.7,30.23,East,90,0.0,-999.0,1,-99.99,,,0.00,Acu-Link.com,2013-04-30 10:02:00,
2013-04-30 06:17:00,42.6,-51.5,30.24,East,90,0.0,-999.0,1,-99.99,,,0.00,Acu-Link.com,2013-04-30 10:17:00,
2013-04-30 06:32:00,43.0,-51.2,30.25,ESE,112,0.0,-999.0,1,-99.99,,,0.00,Acu-Link.com,2013-04-30 10:32:00,
2013-04-30 06:47:00,43.5,-50.9,30.25,ESE,112,0.0,-999.0,1,-99.99,,,0.00,Acu-Link.com,2013-04-30 10:47:00,
2013-04-30 07:02:00,44.8,-50.1,30.26,SW,225,0.0,-999.0,1,-99.99,,,0.00,Acu-Link.com,2013-04-30 11:02:00,
2013-04-30 07:17:00,45.9,-49.5,30.25,WNW,292,0.0,-999.0,1,-99.99,,,0.00,Acu-Link.com,2013-04-30 11:17:00,
2013-04-30 07:32:00,47.5,-48.5,30.25,NW,315,0.0,-999.0,1,-99.99,,,0.00,Acu-Link.com,2013-04-30 11:32:00,
2013-04-30 07:47:00,49.8,-47.1,30.26,East,90,0.0,-999.0,1,-99.99,,,0.00,Acu-Link.com,2013-04-30 11:47:00,
2013-04-30 08:03:00,51.8,-45.8,30.26,South,180,0.0,-999.0,1,-99.99,,,0.00,Acu-Link.com,2013-04-30 12:03:00,
2013-04-30 08:18:00,51.4,-46.1,30.27,SSE,157,0.0,-999.0,1,-99.99,,,0.00,Acu-Link.com,2013-04-30 12:18:00,
2013-04-30 08:48:00,55.2,-10.9,30.27,SW,225,0.0,-999.0,6,-99.99,,,0.00,Acu-Link.com,2013-04-30 12:48:00,
2013-04-30 09:03:00,56.8,-23.2,30.27,West,270,0.0,-999.0,3,-99.99,,,0.00,Acu-Link.com,2013-04-30 13:03:00,
2013-04-30 09:18:00,57.9,3.7,30.25,West,270,0.0,-999.0,11,-99.99,,,0.00,Acu-Link.com,2013-04-30 13:18:00,
2013-04-30 09:33:00,60.3,7.5,30.27,SE,135,0.0,-999.0,12,-99.99,,,0.00,Acu-Link.com,2013-04-30 13:33:00,
2013-04-30 09:49:00,61.7,2.3,30.26,West,270,0.0,-999.0,9,-99.99,,,0.00,Acu-Link.com,2013-04-30 13:49:00,
2013-04-30 10:04:00,61.9,6.8,30.28,South,180,0.0,-999.0,11,-99.99,,,0.00,Acu-Link.com,2013-04-30 14:04:00,
2013-04-30 10:19:00,60.4,5.7,30.27,SSW,202,0.0,-999.0,11,-99.99,,,0.00,Acu-Link.com,2013-04-30 14:19:00,
2013-04-30 10:34:00,62.8,9.5,30.26,West,270,0.0,-999.0,12,-99.99,,,0.00,Acu-Link.com,2013-04-30 14:34:00,
2013-04-30 10:49:00,64.6,15.9,30.27,SSE,157,0.0,-999.0,15,-99.99,,,0.00,Acu-Link.com,2013-04-30 14:49:00,
2013-04-30 11:04:00,66.0,10.0,30.26,SSE,157,3.2,-999.0,11,-99.99,,,0.00,Acu-Link.com,2013-04-30 15:04:00,
2013-04-30 11:19:00,63.7,8.2,30.26,South,180,3.7,-999.0,11,-99.99,,,0.00,Acu-Link.com,2013-04-30 15:19:00,
2013-04-30 11:34:00,64.6,8.9,30.25,South,180,0.0,-999.0,11,-99.99,,,0.00,Acu-Link.com,2013-04-30 15:34:00,
2013-04-30 11:49:00,64.8,2.1,30.25,SW,225,6.8,-999.0,8,-99.99,,,0.00,Acu-Link.com,2013-04-30 15:49:00,
2013-04-30 12:05:00,66.2,-6.7,30.25,SSE,157,5.8,-999.0,5,-99.99,,,0.00,Acu-Link.com,2013-04-30 16:05:00,
2013-04-30 12:20:00,67.3,-2.1,30.25,SW,225,8.9,-999.0,6,-99.99,,,0.00,Acu-Link.com,2013-04-30 16:20:00,
2013-04-30 12:35:00,66.4,3.3,30.24,SE,135,0.0,-999.0,8,-99.99,,,0.00,Acu-Link.com,2013-04-30 16:35:00,
2013-04-30 12:50:00,67.6,-1.9,30.25,South,180,5.3,-999.0,6,-99.99,,,0.00,Acu-Link.com,2013-04-30 16:50:00,
2013-04-30 13:05:00,69.6,-8.9,30.25,South,180,4.2,-999.0,4,-99.99,,,0.00,Acu-Link.com,2013-04-30 17:05:00,
2013-04-30 13:20:00,67.8,-1.8,30.25,SSE,157,3.2,-999.0,6,-99.99,,,0.00,Acu-Link.com,2013-04-30 17:20:00,
2013-04-30 13:36:00,68.7,-4.9,30.23,SSE,157,1.1,-999.0,5,-99.99,,,0.00,Acu-Link.com,2013-04-30 17:36:00,
2013-04-30 13:51:00,68.2,4.7,30.24,SW,225,7.8,-999.0,8,-99.99,,,0.00,Acu-Link.com,2013-04-30 17:51:00,
2013-04-30 14:06:00,68.4,-1.3,30.24,SW,225,4.7,-999.0,6,-99.99,,,0.00,Acu-Link.com,2013-04-30 18:06:00,
2013-04-30 14:21:00,67.8,-1.8,30.24,SW,225,8.3,-999.0,6,-99.99,,,0.00,Acu-Link.com,2013-04-30 18:21:00,
2013-04-30 14:36:00,67.6,1.4,30.24,NNW,337,2.7,-999.0,7,-99.99,,,0.00,Acu-Link.com,2013-04-30 18:36:00,
2013-04-30 14:51:00,67.5,-16.0,30.24,SSE,157,2.2,-999.0,3,-99.99,,,0.00,Acu-Link.com,2013-04-30 18:51:00,
2013-04-30 15:07:00,67.5,-5.8,30.24,SSE,157,3.7,-999.0,5,-99.99,,,0.00,Acu-Link.com,2013-04-30 19:07:00,
2013-04-30 15:22:00,68.7,-35.6,30.24,South,180,4.7,-999.0,0,-99.99,,,0.00,Acu-Link.com,2013-04-30 19:22:00,
2013-04-30 15:37:00,69.8,-34.9,30.24,South,180,6.8,-999.0,0,-99.99,,,0.00,Acu-Link.com,2013-04-30 19:37:00,
2013-04-30 15:52:00,68.5,-35.7,30.24,SE,135,4.7,-999.0,0,-99.99,,,0.00,Acu-Link.com,2013-04-30 19:52:00,
2013-04-30 16:07:00,70.2,-34.7,30.23,South,180,8.9,-999.0,0,-99.99,,,0.00,Acu-Link.com,2013-04-30 20:07:00,
2013-04-30 16:22:00,70.3,-34.6,30.24,WSW,247,5.3,-999.0,0,-99.99,,,0.00,Acu-Link.com,2013-04-30 20:22:00,
2013-04-30 16:37:00,70.0,-34.8,30.24,ENE,67,1.7,-999.0,0,-99.99,,,0.00,Acu-Link.com,2013-04-30 20:37:00,
2013-04-30 16:53:00,67.3,-36.4,30.24,SW,225,6.3,-999.0,0,-99.99,,,0.00,Acu-Link.com,2013-04-30 20:53:00,
2013-04-30 17:08:00,66.9,-36.7,30.24,South,180,6.3,-999.0,0,-99.99,,,0.00,Acu-Link.com,2013-04-30 21:08:00,
2013-04-30 17:23:00,68.0,-36.0,30.24,South,180,4.2,-999.0,1,-99.99,,,0.00,Acu-Link.com,2013-04-30 21:23:00,
2013-04-30 17:38:00,68.0,-36.0,30.24,South,180,2.7,-999.0,0,-99.99,,,0.00,Acu-Link.com,2013-04-30 21:38:00,
2013-04-30 17:53:00,67.8,-36.1,30.23,WSW,247,4.7,-999.0,0,-99.99,,,0.00,Acu-Link.com,2013-04-30 21:53:00,
2013-04-30 18:08:00,66.9,-36.7,30.24,SSE,157,4.2,-999.0,0,-99.99,,,0.00,Acu-Link.com,2013-04-30 22:08:00,
2013-04-30 18:24:00,66.0,-37.2,30.24,South,180,7.3,-999.0,0,-99.99,,,0.00,Acu-Link.com,2013-04-30 22:24:00,
2013-04-30 18:39:00,65.3,-37.6,30.25,South,180,3.7,-999.0,1,-99.99,,,0.00,Acu-Link.com,2013-04-30 22:39:00,
2013-04-30 18:54:00,64.2,-18.2,30.25,South,180,2.7,-999.0,3,-99.99,,,0.00,Acu-Link.com,2013-04-30 22:54:00,
2013-04-30 19:09:00,63.1,-5.2,30.25,SE,135,2.2,-999.0,6,-99.99,,,0.00,Acu-Link.com,2013-04-30 23:09:00,
2013-04-30 19:24:00,61.5,-3.1,30.25,SSE,157,3.7,-999.0,7,-99.99,,,0.00,Acu-Link.com,2013-04-30 23:24:00,
2013-04-30 19:39:00,59.4,4.9,30.25,South,180,2.2,-999.0,11,-99.99,,,0.00,Acu-Link.com,2013-04-30 23:39:00,
2013-04-30 19:55:00,57.7,11.8,30.25,SE,135,2.7,-999.0,16,-99.99,,,0.00,Acu-Link.com,2013-04-30 23:55:00,
2013-04-30 20:10:00,55.8,14.2,30.25,ESE,112,3.2,-999.0,19,-99.99,,,0.00,Acu-Link.com,2013-05-01 00:10:00,
2013-04-30 20:25:00,53.2,18.3,30.26,ESE,112,3.7,-999.0,25,-99.99,,,0.00,Acu-Link.com,2013-05-01 00:25:00,
2013-04-30 20:40:00,51.4,21.8,30.27,ESE,112,3.2,-999.0,31,-99.99,,,0.00,Acu-Link.com,2013-05-01 00:40:00,
2013-04-30 20:55:00,49.8,21.9,30.26,ESE,112,3.2,-999.0,33,-99.99,,,0.00,Acu-Link.com,2013-05-01 00:55:00,
2013-04-30 21:10:00,48.9,21.8,30.28,ESE,112,3.2,-999.0,34,-99.99,,,0.00,Acu-Link.com,2013-05-01 01:10:00,
2013-04-30 21:25:00,48.2,21.2,30.29,ESE,112,2.7,-999.0,34,-99.99,,,0.00,Acu-Link.com,2013-05-01 01:25:00,
2013-04-30 21:40:00,47.5,24.4,30.27,ESE,112,2.7,-999.0,40,-99.99,,,0.00,Acu-Link.com,2013-05-01 01:40:00,
2013-04-30 21:55:00,45.7,22.2,30.27,ESE,112,4.7,-999.0,39,-99.99,,,0.00,Acu-Link.com,2013-05-01 01:55:00,
2013-04-30 22:11:00,45.7,25.1,30.28,ENE,67,0.0,-999.0,44,-99.99,,,0.00,Acu-Link.com,2013-05-01 02:11:00,
2013-04-30 22:26:00,44.6,23.5,30.28,ESE,112,0.0,-999.0,43,-99.99,,,0.00,Acu-Link.com,2013-05-01 02:26:00,
2013-04-30 22:41:00,45.0,22.1,30.30,SE,135,0.0,-999.0,40,-99.99,,,0.00,Acu-Link.com,2013-05-01 02:41:00,
2013-04-30 22:56:00,45.7,21.6,30.29,NE,45,0.0,-999.0,38,-99.99,,,0.00,Acu-Link.com,2013-05-01 02:56:00,
2013-04-30 23:11:00,45.5,22.0,30.30,East,90,0.0,-999.0,39,-99.99,,,0.00,Acu-Link.com,2013-05-01 03:11:00,
2013-04-30 23:26:00,45.0,22.1,30.30,ESE,112,0.0,-999.0,40,-99.99,,,0.00,Acu-Link.com,2013-05-01 03:26:00,
2013-04-30 23:41:00,43.9,21.2,30.29,ESE,112,0.0,-999.0,40,-99.99,,,0.00,Acu-Link.com,2013-05-01 03:41:00,
2013-04-30 23:57:00,43.3,22.3,30.30,ESE,112,0.0,-999.0,43,-99.99,,,0.00,Acu-Link.com,2013-05-01 03:57:00,